createdAt,value
2023-05-10T00:00:55.771Z,27.10
2023-05-10T00:03:22.370Z,27.42
2023-05-10T00:05:49.027Z,25.67
2023-05-10T00:08:15.623Z,27.77
2023-05-10T00:10:42.164Z,26.15
2023-05-10T00:13:11.648Z,24.75
2023-05-10T00:15:38.187Z,27.38
2023-05-10T00:18:04.794Z,27.90
2023-05-10T00:20:31.396Z,26.98
2023-05-10T00:22:57.900Z,26.50
2023-05-10T00:25:24.548Z,26.23
2023-05-10T00:27:51.107Z,29.88
2023-05-10T00:30:19.859Z,26.88
2023-05-10T00:32:46.376Z,26.38
2023-05-10T00:35:12.790Z,26.83
2023-05-10T00:37:39.208Z,27.13
2023-05-10T00:40:07.326Z,29.35
2023-05-10T00:42:33.809Z,25.92
2023-05-10T00:45:03.311Z,27.48
2023-05-10T00:47:33.223Z,28.00
2023-05-10T00:50:01.580Z,28.83
2023-05-10T00:52:29.986Z,27.27
2023-05-10T00:54:57.731Z,28.23
2023-05-10T00:57:25.268Z,26.45
2023-05-10T00:59:52.220Z,26.83
2023-05-10T01:02:18.829Z,25.27
2023-05-10T01:04:45.205Z,28.55
2023-05-10T01:07:12.017Z,28.13
2023-05-10T01:09:38.597Z,28.25
2023-05-10T01:12:10.084Z,28.63
2023-05-10T01:14:37.389Z,29.02
2023-05-10T01:17:06.014Z,28.33
2023-05-10T01:19:35.922Z,29.77
2023-05-10T01:22:23.673Z,29.02
2023-05-10T01:25:27.949Z,26.40
2023-05-10T01:28:16.330Z,29.67
2023-05-10T01:31:09.527Z,27.33
2023-05-10T01:33:55.816Z,25.27
2023-05-10T01:36:40.325Z,27.83
2023-05-10T01:39:15.799Z,27.33
2023-05-10T01:42:01.372Z,26.75
2023-05-10T01:44:41.155Z,28.95
2023-05-10T01:47:18.308Z,28.08
2023-05-10T01:49:50.428Z,26.60
2023-05-10T01:52:20.333Z,30.08
2023-05-10T01:54:54.852Z,29.10
2023-05-10T01:57:23.105Z,31.00
2023-05-10T01:59:51.577Z,32.80
2023-05-10T02:02:21.152Z,30.40
2023-05-10T02:04:50.468Z,32.58
2023-05-10T02:07:17.565Z,30.85
2023-05-10T02:09:48.863Z,32.78
2023-05-10T02:12:16.510Z,32.45
2023-05-10T02:14:44.348Z,32.70
2023-05-10T02:17:12.425Z,29.60
2023-05-10T02:19:42.577Z,31.80
2023-05-10T02:22:09.899Z,31.42
2023-05-10T02:24:38.328Z,31.30
2023-05-10T02:27:05.929Z,31.15
2023-05-10T02:29:34.431Z,30.13
2023-05-10T02:32:02.501Z,30.80
2023-05-10T02:34:29.879Z,31.80
2023-05-10T02:36:57.296Z,27.55
2023-05-10T02:39:28.462Z,30.92
2023-05-10T02:41:56.465Z,30.98
2023-05-10T02:44:24.115Z,27.52
2023-05-10T02:46:50.878Z,30.88
2023-05-10T02:49:17.472Z,28.60
2023-05-10T02:51:53.855Z,31.52
2023-05-10T02:54:25.242Z,29.45
2023-05-10T02:56:57.220Z,31.60
2023-05-10T03:01:50.119Z,32.92
2023-05-10T03:04:16.802Z,32.88
2023-05-10T03:06:43.393Z,32.47
2023-05-10T03:09:14.311Z,33.13
2023-05-10T03:11:48.273Z,31.65
2023-05-10T03:14:23.398Z,34.22
2023-05-10T03:17:19.353Z,33.03
2023-05-10T03:20:05.347Z,37.97
2023-05-10T03:22:37.890Z,38.63
2023-05-10T03:25:07.831Z,33.90
2023-05-10T03:27:38.815Z,36.05
2023-05-10T03:30:12.693Z,40.03
2023-05-10T03:32:39.778Z,38.13
2023-05-10T03:35:16.740Z,37.25
2023-05-10T03:37:43.241Z,36.00
2023-05-10T03:40:13.020Z,36.28
2023-05-10T03:42:39.529Z,32.58
2023-05-10T03:45:06.834Z,29.63
2023-05-10T03:47:33.413Z,29.42
2023-05-10T03:50:03.398Z,29.05
2023-05-10T03:52:29.962Z,29.65
2023-05-10T03:54:56.399Z,28.00
2023-05-10T03:57:25.685Z,28.45
2023-05-10T03:59:52.212Z,30.30
2023-05-10T04:02:18.721Z,27.10
2023-05-10T04:04:45.180Z,27.45
2023-05-10T04:07:11.622Z,25.63
2023-05-10T04:09:38.085Z,25.10
2023-05-10T04:12:04.657Z,25.88
2023-05-10T04:14:31.070Z,26.98
2023-05-10T04:17:00.419Z,29.38
2023-05-10T04:19:31.250Z,31.83
2023-05-10T04:21:57.728Z,31.35
2023-05-10T04:24:24.487Z,31.35
2023-05-10T04:26:51.586Z,33.33
2023-05-10T04:29:19.465Z,30.58
2023-05-10T04:31:46.063Z,30.20
2023-05-10T04:34:14.937Z,30.10
2023-05-10T04:36:41.476Z,29.88
2023-05-10T04:39:07.997Z,29.88
2023-05-10T04:41:34.446Z,29.13
2023-05-10T04:44:00.870Z,29.50
2023-05-10T04:46:27.530Z,29.50
2023-05-10T04:49:01.141Z,30.98
2023-05-10T04:51:27.624Z,29.80
2023-05-10T04:54:05.322Z,29.95
2023-05-10T04:56:32.774Z,35.97
2023-05-10T04:58:59.217Z,31.48
2023-05-10T05:01:25.693Z,29.52
2023-05-10T05:03:53.861Z,30.70
2023-05-10T05:06:21.876Z,27.98
2023-05-10T05:08:50.239Z,27.00
2023-05-10T05:11:16.993Z,24.48
2023-05-10T05:13:43.680Z,26.17
2023-05-10T05:16:10.098Z,27.55
2023-05-10T05:18:36.529Z,27.60
2023-05-10T05:21:03.171Z,23.88
2023-05-10T05:23:29.692Z,23.52
2023-05-10T05:25:56.229Z,22.13
2023-05-10T05:28:22.798Z,20.90
2023-05-10T05:30:49.267Z,20.95
2023-05-10T05:33:16.512Z,19.33
2023-05-10T05:35:45.652Z,18.95
2023-05-10T05:38:12.319Z,17.85
2023-05-10T05:40:38.768Z,16.20
2023-05-10T05:43:05.213Z,17.73
2023-05-10T05:45:31.821Z,17.08
2023-05-10T05:47:58.384Z,16.20
2023-05-10T05:50:24.955Z,15.13
2023-05-10T05:52:52.045Z,16.42
2023-05-10T05:55:20.968Z,16.02
2023-05-10T05:57:47.399Z,14.60
2023-05-10T06:00:14.337Z,13.48
2023-05-10T06:02:40.862Z,16.25
2023-05-10T06:05:07.856Z,13.00
2023-05-10T06:07:34.365Z,11.82
2023-05-10T06:10:04.171Z,14.35
2023-05-10T06:12:30.640Z,13.80
2023-05-10T06:14:57.082Z,15.40
2023-05-10T06:17:23.536Z,15.50
2023-05-10T06:19:50.103Z,17.65
2023-05-10T06:22:16.671Z,18.38
2023-05-10T06:24:43.184Z,16.85
2023-05-10T06:27:09.732Z,15.88
2023-05-10T06:29:36.139Z,20.77
2023-05-10T06:32:02.557Z,16.80
2023-05-10T06:34:28.954Z,15.88
2023-05-10T06:36:55.347Z,16.20
2023-05-10T06:39:22.012Z,16.85
2023-05-10T06:41:48.413Z,16.38
2023-05-10T06:44:14.973Z,17.73
2023-05-10T06:46:42.569Z,17.02
2023-05-10T06:49:09.453Z,19.00
2023-05-10T06:51:35.895Z,17.98
2023-05-10T06:54:02.876Z,14.63
2023-05-10T06:56:29.331Z,19.02
2023-05-10T06:58:55.773Z,17.58
2023-05-10T07:01:22.211Z,15.80
2023-05-10T07:03:48.786Z,15.23
2023-05-10T07:06:29.305Z,13.52
2023-05-10T07:08:59.788Z,11.20
2023-05-10T07:11:26.258Z,14.23
2023-05-10T07:13:52.720Z,13.13
2023-05-10T07:16:20.803Z,13.02
2023-05-10T07:18:51.375Z,12.60
2023-05-10T07:21:17.991Z,13.55
2023-05-10T07:23:45.242Z,14.98
2023-05-10T07:26:12.528Z,14.70
2023-05-10T07:28:39.143Z,14.23
2023-05-10T07:31:05.767Z,14.10
2023-05-10T07:33:32.232Z,13.55
2023-05-10T07:35:58.672Z,14.52
2023-05-10T07:38:25.344Z,12.20
2023-05-10T07:40:51.865Z,13.57
2023-05-10T07:43:18.296Z,13.65
2023-05-10T07:45:45.961Z,12.98
2023-05-10T07:48:12.481Z,13.38
2023-05-10T07:50:38.972Z,14.02
2023-05-10T07:53:05.389Z,13.45
2023-05-10T07:55:31.806Z,12.02
2023-05-10T07:57:58.226Z,13.13
2023-05-10T08:00:24.607Z,13.07
2023-05-10T08:02:51.315Z,11.52
2023-05-10T08:05:18.122Z,13.70
2023-05-10T08:07:44.708Z,12.07
2023-05-10T08:10:12.328Z,13.10
2023-05-10T08:12:39.385Z,14.07
2023-05-10T08:15:06.621Z,14.50
2023-05-10T08:17:33.530Z,12.63
2023-05-10T08:20:00.148Z,13.25
2023-05-10T08:22:27.064Z,10.27
2023-05-10T08:24:53.657Z,10.52
2023-05-10T08:27:20.127Z,10.93
2023-05-10T08:29:50.521Z,10.13
2023-05-10T08:32:17.612Z,10.40
2023-05-10T08:34:44.139Z,8.63
2023-05-10T08:37:13.980Z,8.90
2023-05-10T08:39:40.827Z,8.88
2023-05-10T08:42:08.061Z,10.93
2023-05-10T08:44:36.653Z,7.90
2023-05-10T08:47:08.014Z,8.85
2023-05-10T08:49:34.706Z,9.20
2023-05-10T08:52:05.025Z,8.13
2023-05-10T08:54:34.147Z,7.85
2023-05-10T08:57:01.362Z,7.13
2023-05-10T08:59:28.719Z,8.85
2023-05-10T09:01:58.582Z,9.13
2023-05-10T09:04:25.318Z,7.30
2023-05-10T09:06:51.923Z,8.50
2023-05-10T09:09:19.181Z,7.85
2023-05-10T09:11:46.047Z,9.20
2023-05-10T09:14:13.543Z,7.32
2023-05-10T09:16:42.428Z,8.45
2023-05-10T09:19:09.666Z,7.53
2023-05-10T09:21:42.210Z,9.57
2023-05-10T09:24:12.962Z,8.05
2023-05-10T09:26:49.668Z,9.18
2023-05-10T09:29:19.292Z,7.82
2023-05-10T09:31:48.587Z,9.50
2023-05-10T09:34:29.593Z,9.45
2023-05-10T09:37:05.266Z,8.13
2023-05-10T09:39:36.552Z,8.88
2023-05-10T09:42:09.544Z,7.05
2023-05-10T09:44:36.762Z,6.60
2023-05-10T09:47:03.642Z,6.93
2023-05-10T09:49:30.836Z,6.78
2023-05-10T09:52:02.300Z,6.13
2023-05-10T09:54:29.051Z,6.28
2023-05-10T09:56:55.541Z,7.05
2023-05-10T09:59:22.107Z,5.95
2023-05-10T10:01:52.522Z,4.72
2023-05-10T10:04:20.810Z,5.47
2023-05-10T10:06:47.283Z,4.70
2023-05-10T10:09:15.016Z,5.88
2023-05-10T10:11:42.394Z,4.95
2023-05-10T10:14:08.985Z,6.22
2023-05-10T10:16:35.984Z,4.85
2023-05-10T10:19:02.809Z,5.35
2023-05-10T10:21:29.506Z,4.85
2023-05-10T10:23:58.692Z,4.30
2023-05-10T10:26:26.031Z,3.00
2023-05-10T10:28:58.281Z,3.92
2023-05-10T10:32:20.605Z,4.03
2023-05-10T10:34:47.987Z,3.40
2023-05-10T10:37:17.318Z,4.00
2023-05-10T10:39:43.718Z,3.50
2023-05-10T10:42:10.327Z,4.25
2023-05-10T10:44:39.022Z,3.83
2023-05-10T10:47:19.637Z,3.85
2023-05-10T10:50:03.442Z,3.85
2023-05-10T10:52:41.196Z,2.85
2023-05-10T10:55:19.402Z,3.65
2023-05-10T10:57:52.522Z,2.78
2023-05-10T11:00:23.022Z,2.63
2023-05-10T11:02:51.117Z,3.25
2023-05-10T11:05:50.506Z,3.08
2023-05-10T11:08:28.238Z,4.13
2023-05-10T11:11:09.960Z,3.58
2023-05-10T11:13:41.018Z,3.10
2023-05-10T11:16:28.020Z,3.25
2023-05-10T11:18:58.511Z,3.83
2023-05-10T11:21:25.039Z,3.42
2023-05-10T11:23:58.689Z,4.80
2023-05-10T11:26:33.623Z,3.95
2023-05-10T11:29:01.724Z,3.25
2023-05-10T11:31:29.574Z,4.47
2023-05-10T11:33:58.035Z,4.70
2023-05-10T11:36:30.489Z,4.78
2023-05-10T11:38:57.990Z,3.65
2023-05-10T11:41:25.814Z,3.20
2023-05-10T11:43:54.283Z,3.50
2023-05-10T11:46:23.056Z,3.17
2023-05-10T11:48:55.026Z,3.08
2023-05-10T11:51:22.991Z,3.00
2023-05-10T11:53:53.817Z,2.97
2023-05-10T11:56:21.662Z,3.27
2023-05-10T11:58:56.427Z,3.10
2023-05-10T12:01:24.853Z,2.30
2023-05-10T12:03:52.531Z,2.97
2023-05-10T12:06:22.367Z,3.17
2023-05-10T12:08:53.432Z,2.90
2023-05-10T12:11:22.586Z,2.83
2023-05-10T12:13:49.668Z,4.55
2023-05-10T12:16:27.071Z,3.08
2023-05-10T12:18:57.958Z,3.33
2023-05-10T12:21:25.377Z,4.10
2023-05-10T12:23:54.358Z,3.83
2023-05-10T12:26:25.782Z,3.70
2023-05-10T12:28:52.214Z,4.05
2023-05-10T12:31:22.176Z,3.53
2023-05-10T12:33:50.227Z,4.18
2023-05-10T12:36:17.816Z,4.90
2023-05-10T12:38:50.874Z,3.78
2023-05-10T12:41:18.882Z,3.00
2023-05-10T12:43:49.203Z,4.03
2023-05-10T12:46:17.456Z,3.35
2023-05-10T12:48:45.427Z,3.80
2023-05-10T12:51:14.059Z,4.07
2023-05-10T12:53:43.676Z,3.67
2023-05-10T12:56:11.744Z,4.22
2023-05-10T12:58:39.308Z,4.50
2023-05-10T13:01:06.289Z,3.38
2023-05-10T13:03:33.243Z,2.45
2023-05-10T13:05:59.618Z,3.90
2023-05-10T13:08:26.217Z,5.45
2023-05-10T13:10:53.090Z,6.65
2023-05-10T13:13:19.512Z,7.90
2023-05-10T13:15:46.036Z,9.00
2023-05-10T13:18:12.545Z,9.05
2023-05-10T13:20:39.181Z,10.43
2023-05-10T13:23:05.667Z,8.98
2023-05-10T13:25:35.944Z,9.23
2023-05-10T13:28:02.976Z,8.98
2023-05-10T13:30:30.225Z,10.00
2023-05-10T13:32:56.727Z,9.85
2023-05-10T13:35:23.275Z,10.32
2023-05-10T13:37:50.256Z,11.18
2023-05-10T13:40:17.731Z,10.90
2023-05-10T13:42:44.351Z,9.00
2023-05-10T13:45:13.257Z,9.95
2023-05-10T13:47:39.797Z,9.38
2023-05-10T13:50:07.106Z,10.43
2023-05-10T13:52:33.599Z,7.80
2023-05-10T13:55:00.087Z,8.27
2023-05-10T13:57:26.633Z,9.88
2023-05-10T13:59:53.829Z,7.15
2023-05-10T14:02:21.140Z,7.63
2023-05-10T14:04:47.800Z,7.95
2023-05-10T14:07:14.220Z,7.15
2023-05-10T14:09:40.761Z,6.82
2023-05-10T14:12:07.140Z,6.50
2023-05-10T14:14:33.636Z,6.75
2023-05-10T14:17:00.472Z,5.78
2023-05-10T14:19:28.023Z,6.55
2023-05-10T14:21:54.490Z,6.05
2023-05-10T14:24:21.149Z,6.22
2023-05-10T14:26:47.488Z,6.53
2023-05-10T14:29:15.544Z,8.35
2023-05-10T14:31:42.062Z,5.47
2023-05-10T14:34:08.580Z,6.72
2023-05-10T14:36:35.006Z,7.95
2023-05-10T14:39:01.419Z,7.28
2023-05-10T14:41:27.889Z,6.18
2023-05-10T14:43:54.256Z,5.75
2023-05-10T14:46:20.850Z,5.85
2023-05-10T14:48:47.346Z,5.88
2023-05-10T14:51:13.871Z,6.22
2023-05-10T14:53:40.480Z,5.72
2023-05-10T14:56:07.328Z,5.72
2023-05-10T14:58:34.393Z,6.70
2023-05-10T15:01:02.514Z,6.85
2023-05-10T15:03:29.889Z,6.38
2023-05-10T15:05:58.525Z,7.60
2023-05-10T15:08:25.637Z,5.70
2023-05-10T15:10:52.791Z,6.75
2023-05-10T15:13:19.207Z,6.53
2023-05-10T15:15:45.703Z,6.43
2023-05-10T15:18:12.581Z,6.78
2023-05-10T15:20:39.179Z,6.53
2023-05-10T15:23:05.688Z,6.65
2023-05-10T15:25:35.169Z,6.68
2023-05-10T15:28:03.395Z,7.03
2023-05-10T15:30:30.040Z,6.18
2023-05-10T15:32:56.797Z,6.20
2023-05-10T15:35:23.308Z,6.57
2023-05-10T15:37:50.284Z,5.28
2023-05-10T15:40:16.923Z,4.05
2023-05-10T15:42:43.362Z,4.00
2023-05-10T15:45:15.453Z,3.40
2023-05-10T15:47:42.215Z,3.85
2023-05-10T15:50:09.655Z,3.08
2023-05-10T15:52:36.168Z,3.58
2023-05-10T15:55:04.117Z,4.15
2023-05-10T15:57:30.634Z,3.97
2023-05-10T15:59:57.049Z,4.10
2023-05-10T16:02:23.783Z,3.83
2023-05-10T16:04:50.301Z,3.92
2023-05-10T16:07:16.853Z,3.97
2023-05-10T16:09:43.324Z,3.72
2023-05-10T16:12:10.975Z,3.92
2023-05-10T16:14:44.619Z,3.80
2023-05-10T16:17:11.564Z,3.42
2023-05-10T16:19:38.124Z,3.33
2023-05-10T16:22:05.062Z,3.67
2023-05-10T16:24:31.502Z,4.43
2023-05-10T16:26:57.896Z,4.75
2023-05-10T16:29:24.292Z,4.63
2023-05-10T16:31:50.719Z,4.63
2023-05-10T16:34:17.305Z,3.75
2023-05-10T16:36:45.868Z,4.60
2023-05-10T16:39:12.421Z,4.40
2023-05-10T16:41:38.797Z,4.85
2023-05-10T16:44:05.401Z,4.80
2023-05-10T16:46:31.949Z,3.92
2023-05-10T16:48:59.814Z,4.65
2023-05-10T16:51:26.979Z,5.93
2023-05-10T16:53:53.661Z,5.45
2023-05-10T16:56:21.753Z,5.95
2023-05-10T16:58:49.936Z,5.03
2023-05-10T17:01:17.206Z,5.43
2023-05-10T17:03:43.877Z,5.10
2023-05-10T17:06:14.547Z,5.78
2023-05-10T17:08:40.997Z,5.57
2023-05-10T17:11:07.733Z,7.03
2023-05-10T17:13:34.233Z,6.13
2023-05-10T17:16:04.108Z,9.68
2023-05-10T17:18:33.149Z,8.60
2023-05-10T17:20:59.608Z,6.35
2023-05-10T17:23:28.485Z,7.45
2023-05-10T17:25:55.108Z,6.93
2023-05-10T17:28:21.737Z,7.65
2023-05-10T17:30:55.694Z,7.57
2023-05-10T17:33:22.106Z,8.25
2023-05-10T17:35:48.990Z,7.45
2023-05-10T17:38:15.989Z,7.82
2023-05-10T17:40:42.861Z,8.88
2023-05-10T17:43:10.907Z,8.13
2023-05-10T17:45:37.553Z,8.60
2023-05-10T17:48:04.385Z,8.80
2023-05-10T17:50:32.753Z,8.63
2023-05-10T17:52:59.354Z,8.27
2023-05-10T17:55:30.088Z,7.80
2023-05-10T17:57:59.448Z,6.63
2023-05-10T18:00:26.099Z,9.50
2023-05-10T18:02:52.703Z,8.82
2023-05-10T18:05:19.490Z,9.30
2023-05-10T18:07:46.466Z,7.68
2023-05-10T18:10:12.869Z,9.10
2023-05-10T18:12:39.537Z,8.60
2023-05-10T18:15:06.595Z,9.40
2023-05-10T18:17:34.977Z,8.52
2023-05-10T18:20:02.144Z,8.80
2023-05-10T18:22:28.648Z,9.15
2023-05-10T18:24:55.237Z,9.02
2023-05-10T18:27:25.021Z,9.25
2023-05-10T18:29:52.280Z,9.25
2023-05-10T18:32:20.932Z,8.75
2023-05-10T18:34:47.341Z,8.77
2023-05-10T18:37:14.132Z,8.70
2023-05-10T18:39:40.862Z,9.38
2023-05-10T18:42:08.461Z,8.82
2023-05-10T18:44:34.941Z,9.05
2023-05-10T18:47:01.498Z,8.88
2023-05-10T18:49:29.201Z,9.65
2023-05-10T18:51:55.655Z,9.93
2023-05-10T18:54:22.631Z,8.93
2023-05-10T18:56:49.810Z,8.55
2023-05-10T18:59:16.608Z,9.75
2023-05-10T19:01:43.260Z,7.93
2023-05-10T19:04:09.828Z,8.23
2023-05-10T19:06:36.356Z,7.00
2023-05-10T19:09:03.280Z,8.82
2023-05-10T19:11:32.290Z,8.02
2023-05-10T19:13:58.826Z,8.15
2023-05-10T19:16:27.391Z,7.45
2023-05-10T19:18:56.401Z,8.40
2023-05-10T19:21:23.504Z,6.70
2023-05-10T19:23:50.056Z,8.13
2023-05-10T19:26:16.591Z,9.18
2023-05-10T19:28:43.032Z,7.68
2023-05-10T19:31:09.625Z,8.80
2023-05-10T19:33:38.343Z,7.55
2023-05-10T19:36:05.529Z,7.97
2023-05-10T19:38:31.920Z,9.48
2023-05-10T19:41:01.293Z,8.98
2023-05-10T19:43:30.657Z,7.55
2023-05-10T19:45:59.194Z,9.97
2023-05-10T19:48:25.978Z,8.25
2023-05-10T19:50:53.665Z,9.13
2023-05-10T19:53:27.309Z,9.60
2023-05-10T19:55:54.920Z,8.55
2023-05-10T19:58:21.473Z,8.23
2023-05-10T20:00:47.943Z,8.48
2023-05-10T20:03:14.446Z,9.35
2023-05-10T20:05:40.871Z,9.13
2023-05-10T20:08:07.903Z,7.80
2023-05-10T20:10:34.286Z,9.80
2023-05-10T20:13:01.044Z,16.25
2023-05-10T20:15:29.451Z,8.25
2023-05-10T20:17:56.204Z,9.82
2023-05-10T20:20:22.751Z,7.28
2023-05-10T20:22:49.693Z,8.30
2023-05-10T20:25:17.621Z,9.63
2023-05-10T20:27:44.724Z,9.00
2023-05-10T20:30:11.847Z,8.60
2023-05-10T20:32:38.893Z,9.20
2023-05-10T20:35:06.169Z,7.95
2023-05-10T20:37:33.071Z,8.85
2023-05-10T20:39:59.951Z,9.02
2023-05-10T20:42:26.429Z,9.00
2023-05-10T20:44:52.867Z,8.60
2023-05-10T20:47:19.416Z,9.45
2023-05-10T20:49:46.050Z,9.85
2023-05-10T20:52:12.686Z,8.43
2023-05-10T20:54:42.130Z,29.05
2023-05-10T20:57:14.143Z,42.60
2023-05-10T20:59:40.637Z,40.78
2023-05-10T21:02:07.057Z,13.95
2023-05-10T21:04:33.770Z,10.15
2023-05-10T21:07:00.275Z,11.25
2023-05-10T21:09:26.749Z,9.88
2023-05-10T21:11:55.898Z,10.02
2023-05-10T21:14:22.345Z,10.85
2023-05-10T21:16:51.072Z,13.23
2023-05-10T21:19:17.517Z,11.57
2023-05-10T21:21:43.905Z,19.65
2023-05-10T21:24:10.473Z,14.68
2023-05-10T21:26:37.271Z,11.32
2023-05-10T21:29:04.752Z,11.18
2023-05-10T21:31:31.761Z,11.00
2023-05-10T21:33:58.319Z,10.20
2023-05-10T21:36:25.638Z,11.75
2023-05-10T21:38:52.337Z,10.98
2023-05-10T21:41:18.825Z,11.15
2023-05-10T21:43:45.327Z,11.20
2023-05-10T21:46:13.381Z,10.30
2023-05-10T21:48:39.892Z,10.70
2023-05-10T21:51:06.410Z,10.80
2023-05-10T21:53:33.515Z,12.27
2023-05-10T21:55:59.958Z,12.57
2023-05-10T21:58:26.473Z,32.55
2023-05-10T22:00:52.988Z,86.53
2023-05-10T22:03:21.505Z,56.95
2023-05-10T22:05:48.170Z,67.25
2023-05-10T22:08:14.868Z,31.63
2023-05-10T22:10:42.722Z,14.35
2023-05-10T22:13:09.254Z,11.48
2023-05-10T22:15:36.618Z,11.93
2023-05-10T22:18:03.398Z,11.18
2023-05-10T22:20:29.910Z,10.38
2023-05-10T22:22:56.413Z,10.38
2023-05-10T22:25:22.992Z,9.68
2023-05-10T22:27:49.581Z,9.38
2023-05-10T22:30:19.859Z,10.23
2023-05-10T22:32:49.148Z,10.02
2023-05-10T22:35:15.631Z,10.85
2023-05-10T22:37:42.213Z,11.13
2023-05-10T22:40:09.256Z,10.55
2023-05-10T22:42:35.710Z,10.10
2023-05-10T22:45:02.163Z,10.00
2023-05-10T22:47:28.607Z,10.93
2023-05-10T22:49:55.585Z,11.98
2023-05-10T22:52:22.044Z,12.02
2023-05-10T22:54:48.495Z,11.60
2023-05-10T22:57:15.215Z,11.32
2023-05-10T22:59:42.455Z,13.20
2023-05-10T23:02:09.572Z,13.63
2023-05-10T23:04:36.297Z,11.70
2023-05-10T23:07:02.757Z,14.82
2023-05-10T23:09:29.139Z,14.00
2023-05-10T23:11:55.741Z,13.63
2023-05-10T23:14:22.479Z,14.98
2023-05-10T23:16:48.920Z,13.48
2023-05-10T23:19:16.587Z,14.48
2023-05-10T23:21:43.042Z,15.05
2023-05-10T23:24:09.569Z,13.50
2023-05-10T23:26:36.233Z,14.55
2023-05-10T23:29:02.637Z,12.40
2023-05-10T23:31:29.245Z,14.05
2023-05-10T23:33:55.908Z,14.13
2023-05-10T23:36:22.514Z,13.32
2023-05-10T23:38:48.957Z,13.40
2023-05-10T23:41:15.532Z,13.90
2023-05-10T23:43:42.006Z,14.32
2023-05-10T23:46:08.563Z,12.82
2023-05-10T23:48:37.432Z,14.00
2023-05-10T23:51:04.036Z,13.63
2023-05-10T23:53:30.564Z,16.60
2023-05-10T23:55:57.349Z,14.45
2023-05-10T23:58:23.897Z,15.93
